sensor_id;sensor_type;location;lat;lon;timestamp;P1;durP1;ratioP1;P2;durP2;ratioP2
85769;SDS011;76210;41.986;21.462;2024-02-21T00:00:27;16.85;;;10.40;;
85769;SDS011;76210;41.986;21.462;2024-02-21T00:02:53;17.70;;;10.10;;
85769;SDS011;76210;41.986;21.462;2024-02-21T00:05:18;21.60;;;10.65;;
85769;SDS011;76210;41.986;21.462;2024-02-21T00:07:43;15.38;;;10.55;;
85769;SDS011;76210;41.986;21.462;2024-02-21T00:10:09;15.20;;;9.75;;
85769;SDS011;76210;41.986;21.462;2024-02-21T00:12:34;17.37;;;9.83;;
85769;SDS011;76210;41.986;21.462;2024-02-21T00:14:59;16.90;;;10.48;;
85769;SDS011;76210;41.986;21.462;2024-02-21T00:17:25;14.13;;;10.73;;
85769;SDS011;76210;41.986;21.462;2024-02-21T00:19:51;17.50;;;11.32;;
85769;SDS011;76210;41.986;21.462;2024-02-21T00:22:16;15.88;;;11.57;;
85769;SDS011;76210;41.986;21.462;2024-02-21T00:24:42;20.80;;;13.77;;
85769;SDS011;76210;41.986;21.462;2024-02-21T00:27:07;23.50;;;14.10;;
85769;SDS011;76210;41.986;21.462;2024-02-21T00:29:32;24.15;;;15.25;;
85769;SDS011;76210;41.986;21.462;2024-02-21T00:31:59;21.83;;;14.23;;
85769;SDS011;76210;41.986;21.462;2024-02-21T00:34:24;23.05;;;14.82;;
85769;SDS011;76210;41.986;21.462;2024-02-21T00:36:50;23.50;;;13.80;;
85769;SDS011;76210;41.986;21.462;2024-02-21T00:39:15;23.13;;;15.25;;
85769;SDS011;76210;41.986;21.462;2024-02-21T00:41:40;22.23;;;13.43;;
85769;SDS011;76210;41.986;21.462;2024-02-21T00:44:05;21.92;;;15.13;;
85769;SDS011;76210;41.986;21.462;2024-02-21T00:46:31;23.50;;;14.23;;
85769;SDS011;76210;41.986;21.462;2024-02-21T00:48:56;22.88;;;14.73;;
85769;SDS011;76210;41.986;21.462;2024-02-21T00:51:21;24.50;;;15.80;;
85769;SDS011;76210;41.986;21.462;2024-02-21T00:53:47;30.75;;;17.92;;
85769;SDS011;76210;41.986;21.462;2024-02-21T00:56:12;28.53;;;16.83;;
85769;SDS011;76210;41.986;21.462;2024-02-21T00:58:37;24.80;;;15.55;;
85769;SDS011;76210;41.986;21.462;2024-02-21T01:01:03;27.40;;;16.65;;
85769;SDS011;76210;41.986;21.462;2024-02-21T01:03:28;21.90;;;14.75;;
85769;SDS011;76210;41.986;21.462;2024-02-21T01:05:53;21.90;;;14.40;;
85769;SDS011;76210;41.986;21.462;2024-02-21T01:08:19;25.10;;;15.85;;
85769;SDS011;76210;41.986;21.462;2024-02-21T01:10:44;29.40;;;18.20;;
85769;SDS011;76210;41.986;21.462;2024-02-21T01:13:09;26.38;;;15.95;;
85769;SDS011;76210;41.986;21.462;2024-02-21T01:15:34;29.93;;;18.97;;
85769;SDS011;76210;41.986;21.462;2024-02-21T01:18:00;32.53;;;19.40;;
85769;SDS011;76210;41.986;21.462;2024-02-21T01:20:26;25.35;;;16.17;;
85769;SDS011;76210;41.986;21.462;2024-02-21T01:22:51;25.37;;;17.70;;
85769;SDS011;76210;41.986;21.462;2024-02-21T01:25:16;27.92;;;17.48;;
85769;SDS011;76210;41.986;21.462;2024-02-21T01:27:41;20.63;;;14.30;;
85769;SDS011;76210;41.986;21.462;2024-02-21T01:30:07;22.77;;;15.37;;
85769;SDS011;76210;41.986;21.462;2024-02-21T01:32:32;23.80;;;15.45;;
85769;SDS011;76210;41.986;21.462;2024-02-21T01:34:57;21.33;;;13.03;;
85769;SDS011;76210;41.986;21.462;2024-02-21T01:37:23;30.10;;;19.73;;
85769;SDS011;76210;41.986;21.462;2024-02-21T01:39:48;30.87;;;19.00;;
85769;SDS011;76210;41.986;21.462;2024-02-21T01:42:14;27.77;;;16.92;;
85769;SDS011;76210;41.986;21.462;2024-02-21T01:44:40;38.83;;;22.73;;
85769;SDS011;76210;41.986;21.462;2024-02-21T01:47:05;31.83;;;19.10;;
85769;SDS011;76210;41.986;21.462;2024-02-21T01:49:30;26.27;;;16.80;;
85769;SDS011;76210;41.986;21.462;2024-02-21T01:51:56;26.02;;;15.90;;
85769;SDS011;76210;41.986;21.462;2024-02-21T01:54:21;34.50;;;20.30;;
85769;SDS011;76210;41.986;21.462;2024-02-21T01:56:47;35.13;;;22.20;;
85769;SDS011;76210;41.986;21.462;2024-02-21T01:59:13;31.35;;;17.75;;
85769;SDS011;76210;41.986;21.462;2024-02-21T02:01:38;36.55;;;20.77;;
85769;SDS011;76210;41.986;21.462;2024-02-21T02:04:04;35.17;;;21.00;;
85769;SDS011;76210;41.986;21.462;2024-02-21T02:06:30;31.95;;;19.25;;
85769;SDS011;76210;41.986;21.462;2024-02-21T02:08:55;26.83;;;16.17;;
85769;SDS011;76210;41.986;21.462;2024-02-21T02:11:21;27.02;;;16.25;;
85769;SDS011;76210;41.986;21.462;2024-02-21T02:13:47;25.13;;;15.05;;
85769;SDS011;76210;41.986;21.462;2024-02-21T02:16:12;25.00;;;15.75;;
85769;SDS011;76210;41.986;21.462;2024-02-21T02:18:37;28.23;;;15.80;;
85769;SDS011;76210;41.986;21.462;2024-02-21T02:21:08;28.17;;;17.33;;
85769;SDS011;76210;41.986;21.462;2024-02-21T02:23:35;24.48;;;14.75;;
85769;SDS011;76210;41.986;21.462;2024-02-21T02:26:01;27.07;;;16.10;;
85769;SDS011;76210;41.986;21.462;2024-02-21T02:28:26;24.80;;;15.07;;
85769;SDS011;76210;41.986;21.462;2024-02-21T02:30:52;22.63;;;14.15;;
85769;SDS011;76210;41.986;21.462;2024-02-21T02:33:17;26.38;;;16.17;;
85769;SDS011;76210;41.986;21.462;2024-02-21T02:35:43;21.65;;;13.73;;
85769;SDS011;76210;41.986;21.462;2024-02-21T02:38:08;26.05;;;15.80;;
85769;SDS011;76210;41.986;21.462;2024-02-21T02:40:35;26.80;;;17.08;;
85769;SDS011;76210;41.986;21.462;2024-02-21T02:43:00;32.80;;;20.20;;
85769;SDS011;76210;41.986;21.462;2024-02-21T02:45:26;69.35;;;34.33;;
85769;SDS011;76210;41.986;21.462;2024-02-21T02:47:52;62.08;;;35.28;;
85769;SDS011;76210;41.986;21.462;2024-02-21T02:50:17;49.35;;;29.90;;
85769;SDS011;76210;41.986;21.462;2024-02-21T02:52:42;38.15;;;22.85;;
85769;SDS011;76210;41.986;21.462;2024-02-21T02:55:08;34.28;;;20.45;;
85769;SDS011;76210;41.986;21.462;2024-02-21T02:57:33;42.63;;;25.25;;
85769;SDS011;76210;41.986;21.462;2024-02-21T02:59:58;46.10;;;27.00;;
85769;SDS011;76210;41.986;21.462;2024-02-21T03:02:24;38.42;;;22.33;;
85769;SDS011;76210;41.986;21.462;2024-02-21T03:04:49;34.50;;;20.13;;
85769;SDS011;76210;41.986;21.462;2024-02-21T03:07:14;33.60;;;20.52;;
85769;SDS011;76210;41.986;21.462;2024-02-21T03:09:40;34.88;;;20.88;;
85769;SDS011;76210;41.986;21.462;2024-02-21T03:12:05;35.85;;;20.67;;
85769;SDS011;76210;41.986;21.462;2024-02-21T03:14:31;37.80;;;22.13;;
85769;SDS011;76210;41.986;21.462;2024-02-21T03:16:57;31.35;;;19.42;;
85769;SDS011;76210;41.986;21.462;2024-02-21T03:19:22;37.80;;;22.33;;
85769;SDS011;76210;41.986;21.462;2024-02-21T03:21:48;35.43;;;21.70;;
85769;SDS011;76210;41.986;21.462;2024-02-21T03:24:14;33.85;;;21.48;;
85769;SDS011;76210;41.986;21.462;2024-02-21T03:26:40;36.85;;;21.95;;
85769;SDS011;76210;41.986;21.462;2024-02-21T03:29:05;38.53;;;22.92;;
85769;SDS011;76210;41.986;21.462;2024-02-21T03:31:30;35.22;;;21.77;;
85769;SDS011;76210;41.986;21.462;2024-02-21T03:33:56;38.03;;;22.10;;
85769;SDS011;76210;41.986;21.462;2024-02-21T03:36:21;38.67;;;24.03;;
85769;SDS011;76210;41.986;21.462;2024-02-21T03:38:46;37.90;;;22.83;;
85769;SDS011;76210;41.986;21.462;2024-02-21T03:41:12;36.88;;;22.25;;
85769;SDS011;76210;41.986;21.462;2024-02-21T03:43:38;37.42;;;22.15;;
85769;SDS011;76210;41.986;21.462;2024-02-21T03:46:04;38.25;;;24.02;;
85769;SDS011;76210;41.986;21.462;2024-02-21T03:48:29;37.30;;;22.65;;
85769;SDS011;76210;41.986;21.462;2024-02-21T03:50:54;37.00;;;23.27;;
85769;SDS011;76210;41.986;21.462;2024-02-21T03:53:19;36.10;;;22.20;;
85769;SDS011;76210;41.986;21.462;2024-02-21T03:55:45;33.08;;;20.60;;
85769;SDS011;76210;41.986;21.462;2024-02-21T03:58:10;39.90;;;22.90;;
85769;SDS011;76210;41.986;21.462;2024-02-21T04:00:35;36.13;;;21.83;;
85769;SDS011;76210;41.986;21.462;2024-02-21T04:03:01;37.17;;;21.42;;
85769;SDS011;76210;41.986;21.462;2024-02-21T04:05:26;38.63;;;22.88;;
85769;SDS011;76210;41.986;21.462;2024-02-21T04:07:51;38.10;;;22.35;;
85769;SDS011;76210;41.986;21.462;2024-02-21T04:10:17;40.05;;;24.02;;
85769;SDS011;76210;41.986;21.462;2024-02-21T04:12:42;35.85;;;23.05;;
85769;SDS011;76210;41.986;21.462;2024-02-21T04:15:07;41.37;;;23.70;;
85769;SDS011;76210;41.986;21.462;2024-02-21T04:17:33;46.33;;;25.35;;
85769;SDS011;76210;41.986;21.462;2024-02-21T04:20:04;45.97;;;25.25;;
85769;SDS011;76210;41.986;21.462;2024-02-21T04:22:33;39.00;;;23.70;;
85769;SDS011;76210;41.986;21.462;2024-02-21T04:25:02;42.00;;;25.67;;
85769;SDS011;76210;41.986;21.462;2024-02-21T04:27:27;37.95;;;23.77;;
85769;SDS011;76210;41.986;21.462;2024-02-21T04:29:53;40.90;;;23.75;;
85769;SDS011;76210;41.986;21.462;2024-02-21T04:32:18;45.25;;;24.77;;
85769;SDS011;76210;41.986;21.462;2024-02-21T04:34:43;38.10;;;22.77;;
85769;SDS011;76210;41.986;21.462;2024-02-21T04:37:08;35.83;;;21.02;;
85769;SDS011;76210;41.986;21.462;2024-02-21T04:39:34;41.60;;;22.60;;
85769;SDS011;76210;41.986;21.462;2024-02-21T04:41:59;38.03;;;22.07;;
85769;SDS011;76210;41.986;21.462;2024-02-21T04:44:24;35.00;;;21.83;;
85769;SDS011;76210;41.986;21.462;2024-02-21T04:46:50;37.80;;;21.40;;
85769;SDS011;76210;41.986;21.462;2024-02-21T04:49:15;38.28;;;21.58;;
85769;SDS011;76210;41.986;21.462;2024-02-21T04:51:41;37.63;;;21.17;;
85769;SDS011;76210;41.986;21.462;2024-02-21T04:54:06;41.22;;;22.10;;
85769;SDS011;76210;41.986;21.462;2024-02-21T04:56:31;42.40;;;21.08;;
85769;SDS011;76210;41.986;21.462;2024-02-21T04:58:57;43.40;;;23.00;;
85769;SDS011;76210;41.986;21.462;2024-02-21T05:01:22;45.30;;;21.52;;
85769;SDS011;76210;41.986;21.462;2024-02-21T05:03:47;40.65;;;20.45;;
85769;SDS011;76210;41.986;21.462;2024-02-21T05:06:13;44.47;;;21.17;;
85769;SDS011;76210;41.986;21.462;2024-02-21T05:08:38;38.35;;;20.30;;
85769;SDS011;76210;41.986;21.462;2024-02-21T05:11:03;40.97;;;21.25;;
85769;SDS011;76210;41.986;21.462;2024-02-21T05:13:28;40.23;;;22.10;;
85769;SDS011;76210;41.986;21.462;2024-02-21T05:15:54;41.40;;;20.83;;
85769;SDS011;76210;41.986;21.462;2024-02-21T05:18:19;45.05;;;22.77;;
85769;SDS011;76210;41.986;21.462;2024-02-21T05:20:45;40.75;;;22.85;;
85769;SDS011;76210;41.986;21.462;2024-02-21T05:23:11;35.63;;;20.30;;
85769;SDS011;76210;41.986;21.462;2024-02-21T05:25:36;39.20;;;21.40;;
85769;SDS011;76210;41.986;21.462;2024-02-21T05:28:01;42.40;;;22.63;;
85769;SDS011;76210;41.986;21.462;2024-02-21T05:30:28;41.78;;;22.20;;
85769;SDS011;76210;41.986;21.462;2024-02-21T05:32:53;38.97;;;22.00;;
85769;SDS011;76210;41.986;21.462;2024-02-21T05:35:18;36.85;;;20.88;;
85769;SDS011;76210;41.986;21.462;2024-02-21T05:37:44;43.03;;;23.65;;
85769;SDS011;76210;41.986;21.462;2024-02-21T05:40:11;42.30;;;23.05;;
85769;SDS011;76210;41.986;21.462;2024-02-21T05:42:38;42.90;;;24.52;;
85769;SDS011;76210;41.986;21.462;2024-02-21T05:45:03;47.17;;;26.42;;
85769;SDS011;76210;41.986;21.462;2024-02-21T05:47:28;45.13;;;25.13;;
85769;SDS011;76210;41.986;21.462;2024-02-21T05:49:54;40.37;;;24.83;;
85769;SDS011;76210;41.986;21.462;2024-02-21T05:52:19;41.72;;;23.85;;
85769;SDS011;76210;41.986;21.462;2024-02-21T05:54:44;46.13;;;25.40;;
85769;SDS011;76210;41.986;21.462;2024-02-21T05:57:10;45.42;;;26.58;;
85769;SDS011;76210;41.986;21.462;2024-02-21T05:59:37;46.38;;;26.52;;
85769;SDS011;76210;41.986;21.462;2024-02-21T06:02:05;46.10;;;26.65;;
85769;SDS011;76210;41.986;21.462;2024-02-21T06:04:30;43.38;;;26.05;;
85769;SDS011;76210;41.986;21.462;2024-02-21T06:06:55;43.22;;;24.73;;
85769;SDS011;76210;41.986;21.462;2024-02-21T06:09:20;47.73;;;27.23;;
85769;SDS011;76210;41.986;21.462;2024-02-21T06:11:46;49.43;;;27.63;;
85769;SDS011;76210;41.986;21.462;2024-02-21T06:14:12;58.45;;;31.08;;
85769;SDS011;76210;41.986;21.462;2024-02-21T06:16:37;49.23;;;26.97;;
85769;SDS011;76210;41.986;21.462;2024-02-21T06:19:02;41.27;;;24.87;;
85769;SDS011;76210;41.986;21.462;2024-02-21T06:21:31;46.00;;;23.88;;
85769;SDS011;76210;41.986;21.462;2024-02-21T06:23:56;43.08;;;23.45;;
85769;SDS011;76210;41.986;21.462;2024-02-21T06:26:21;52.15;;;29.75;;
85769;SDS011;76210;41.986;21.462;2024-02-21T06:28:47;46.23;;;26.07;;
85769;SDS011;76210;41.986;21.462;2024-02-21T06:31:12;53.67;;;31.08;;
85769;SDS011;76210;41.986;21.462;2024-02-21T06:33:37;48.92;;;30.40;;
85769;SDS011;76210;41.986;21.462;2024-02-21T06:36:03;42.80;;;25.90;;
85769;SDS011;76210;41.986;21.462;2024-02-21T06:38:28;33.53;;;20.38;;
85769;SDS011;76210;41.986;21.462;2024-02-21T06:40:53;32.53;;;21.30;;
85769;SDS011;76210;41.986;21.462;2024-02-21T06:43:20;30.80;;;22.40;;
85769;SDS011;76210;41.986;21.462;2024-02-21T06:45:45;30.35;;;21.48;;
85769;SDS011;76210;41.986;21.462;2024-02-21T06:48:16;32.05;;;22.35;;
85769;SDS011;76210;41.986;21.462;2024-02-21T06:50:41;34.38;;;23.42;;
85769;SDS011;76210;41.986;21.462;2024-02-21T06:53:06;31.42;;;21.00;;
85769;SDS011;76210;41.986;21.462;2024-02-21T06:55:32;33.85;;;23.42;;
85769;SDS011;76210;41.986;21.462;2024-02-21T06:57:57;34.27;;;23.80;;
85769;SDS011;76210;41.986;21.462;2024-02-21T07:00:22;30.27;;;22.33;;
85769;SDS011;76210;41.986;21.462;2024-02-21T07:02:48;34.72;;;22.25;;
85769;SDS011;76210;41.986;21.462;2024-02-21T07:05:13;44.33;;;27.33;;
85769;SDS011;76210;41.986;21.462;2024-02-21T07:07:38;44.08;;;26.75;;
85769;SDS011;76210;41.986;21.462;2024-02-21T07:10:05;35.88;;;25.10;;
85769;SDS011;76210;41.986;21.462;2024-02-21T07:12:31;34.60;;;23.45;;
85769;SDS011;76210;41.986;21.462;2024-02-21T07:14:56;34.13;;;23.90;;
85769;SDS011;76210;41.986;21.462;2024-02-21T07:17:21;38.77;;;25.27;;
85769;SDS011;76210;41.986;21.462;2024-02-21T07:19:46;35.50;;;24.95;;
85769;SDS011;76210;41.986;21.462;2024-02-21T07:22:12;30.97;;;22.23;;
85769;SDS011;76210;41.986;21.462;2024-02-21T07:24:37;35.92;;;22.65;;
85769;SDS011;76210;41.986;21.462;2024-02-21T07:27:02;33.33;;;24.50;;
85769;SDS011;76210;41.986;21.462;2024-02-21T07:29:29;30.42;;;21.52;;
85769;SDS011;76210;41.986;21.462;2024-02-21T07:31:55;32.10;;;22.67;;
85769;SDS011;76210;41.986;21.462;2024-02-21T07:34:20;26.15;;;18.95;;
85769;SDS011;76210;41.986;21.462;2024-02-21T07:36:46;25.38;;;19.38;;
85769;SDS011;76210;41.986;21.462;2024-02-21T07:39:11;24.15;;;20.15;;
85769;SDS011;76210;41.986;21.462;2024-02-21T07:41:37;24.35;;;19.00;;
85769;SDS011;76210;41.986;21.462;2024-02-21T07:44:04;24.63;;;18.23;;
85769;SDS011;76210;41.986;21.462;2024-02-21T07:46:29;25.40;;;18.20;;
85769;SDS011;76210;41.986;21.462;2024-02-21T07:48:54;22.15;;;16.75;;
85769;SDS011;76210;41.986;21.462;2024-02-21T07:51:20;21.37;;;17.20;;
85769;SDS011;76210;41.986;21.462;2024-02-21T07:53:45;21.88;;;16.33;;
85769;SDS011;76210;41.986;21.462;2024-02-21T07:56:11;20.02;;;17.40;;
85769;SDS011;76210;41.986;21.462;2024-02-21T07:58:37;19.85;;;17.38;;
85769;SDS011;76210;41.986;21.462;2024-02-21T08:01:02;23.92;;;17.65;;
85769;SDS011;76210;41.986;21.462;2024-02-21T08:03:27;20.45;;;17.88;;
85769;SDS011;76210;41.986;21.462;2024-02-21T08:05:52;24.27;;;17.08;;
85769;SDS011;76210;41.986;21.462;2024-02-21T08:08:18;20.03;;;17.80;;
85769;SDS011;76210;41.986;21.462;2024-02-21T08:10:46;23.00;;;18.77;;
85769;SDS011;76210;41.986;21.462;2024-02-21T08:13:11;34.30;;;24.60;;
85769;SDS011;76210;41.986;21.462;2024-02-21T08:15:36;31.20;;;25.83;;
85769;SDS011;76210;41.986;21.462;2024-02-21T08:18:04;30.73;;;24.38;;
85769;SDS011;76210;41.986;21.462;2024-02-21T08:20:29;32.35;;;28.27;;
85769;SDS011;76210;41.986;21.462;2024-02-21T08:22:54;31.08;;;25.85;;
85769;SDS011;76210;41.986;21.462;2024-02-21T08:25:20;27.92;;;23.80;;
85769;SDS011;76210;41.986;21.462;2024-02-21T08:27:45;31.13;;;25.85;;
85769;SDS011;76210;41.986;21.462;2024-02-21T08:30:10;28.80;;;22.70;;
85769;SDS011;76210;41.986;21.462;2024-02-21T08:32:36;33.25;;;25.02;;
85769;SDS011;76210;41.986;21.462;2024-02-21T08:35:02;32.50;;;24.92;;
85769;SDS011;76210;41.986;21.462;2024-02-21T08:37:28;29.52;;;22.52;;
85769;SDS011;76210;41.986;21.462;2024-02-21T08:39:53;29.33;;;23.83;;
85769;SDS011;76210;41.986;21.462;2024-02-21T08:42:18;29.55;;;23.85;;
85769;SDS011;76210;41.986;21.462;2024-02-21T08:44:44;30.17;;;24.33;;
85769;SDS011;76210;41.986;21.462;2024-02-21T08:47:09;33.22;;;25.00;;
85769;SDS011;76210;41.986;21.462;2024-02-21T08:49:35;29.95;;;22.67;;
85769;SDS011;76210;41.986;21.462;2024-02-21T08:52:00;30.23;;;22.58;;
85769;SDS011;76210;41.986;21.462;2024-02-21T08:54:26;30.98;;;22.92;;
85769;SDS011;76210;41.986;21.462;2024-02-21T08:56:51;30.90;;;23.20;;
85769;SDS011;76210;41.986;21.462;2024-02-21T08:59:17;33.85;;;22.80;;
85769;SDS011;76210;41.986;21.462;2024-02-21T09:01:42;34.47;;;24.40;;
85769;SDS011;76210;41.986;21.462;2024-02-21T09:04:08;33.35;;;23.38;;
85769;SDS011;76210;41.986;21.462;2024-02-21T09:06:33;34.50;;;22.33;;
85769;SDS011;76210;41.986;21.462;2024-02-21T09:09:02;37.65;;;23.60;;
85769;SDS011;76210;41.986;21.462;2024-02-21T09:11:27;35.15;;;22.25;;
85769;SDS011;76210;41.986;21.462;2024-02-21T09:13:53;33.05;;;20.30;;
85769;SDS011;76210;41.986;21.462;2024-02-21T09:16:18;36.88;;;20.77;;
85769;SDS011;76210;41.986;21.462;2024-02-21T09:18:43;33.67;;;21.23;;
85769;SDS011;76210;41.986;21.462;2024-02-21T09:21:08;35.90;;;22.50;;
85769;SDS011;76210;41.986;21.462;2024-02-21T09:23:34;36.97;;;21.37;;
85769;SDS011;76210;41.986;21.462;2024-02-21T09:25:59;31.97;;;20.07;;
85769;SDS011;76210;41.986;21.462;2024-02-21T09:28:28;31.65;;;18.65;;
85769;SDS011;76210;41.986;21.462;2024-02-21T09:30:53;28.70;;;17.90;;
85769;SDS011;76210;41.986;21.462;2024-02-21T09:33:19;28.65;;;17.75;;
85769;SDS011;76210;41.986;21.462;2024-02-21T09:35:44;30.85;;;17.48;;
85769;SDS011;76210;41.986;21.462;2024-02-21T09:38:09;25.57;;;15.60;;
85769;SDS011;76210;41.986;21.462;2024-02-21T09:40:35;21.60;;;13.93;;
85769;SDS011;76210;41.986;21.462;2024-02-21T09:43:03;24.90;;;12.77;;
85769;SDS011;76210;41.986;21.462;2024-02-21T09:45:32;22.55;;;11.38;;
85769;SDS011;76210;41.986;21.462;2024-02-21T09:50:35;22.92;;;12.68;;
85769;SDS011;76210;41.986;21.462;2024-02-21T09:53:01;17.77;;;10.38;;
85769;SDS011;76210;41.986;21.462;2024-02-21T09:55:27;16.33;;;9.43;;
85769;SDS011;76210;41.986;21.462;2024-02-21T09:57:54;17.42;;;10.23;;
85769;SDS011;76210;41.986;21.462;2024-02-21T10:00:20;22.70;;;11.90;;
85769;SDS011;76210;41.986;21.462;2024-02-21T10:02:48;19.63;;;10.18;;
85769;SDS011;76210;41.986;21.462;2024-02-21T10:05:15;18.10;;;8.93;;
85769;SDS011;76210;41.986;21.462;2024-02-21T10:07:40;24.77;;;9.90;;
85769;SDS011;76210;41.986;21.462;2024-02-21T10:10:05;14.80;;;7.05;;
85769;SDS011;76210;41.986;21.462;2024-02-21T10:12:31;12.50;;;7.32;;
85769;SDS011;76210;41.986;21.462;2024-02-21T10:15:03;15.18;;;8.88;;
85769;SDS011;76210;41.986;21.462;2024-02-21T10:17:28;17.20;;;8.68;;
85769;SDS011;76210;41.986;21.462;2024-02-21T10:19:54;13.93;;;7.03;;
85769;SDS011;76210;41.986;21.462;2024-02-21T10:22:19;12.13;;;7.17;;
85769;SDS011;76210;41.986;21.462;2024-02-21T10:24:46;9.95;;;6.63;;
85769;SDS011;76210;41.986;21.462;2024-02-21T10:27:11;15.40;;;7.20;;
85769;SDS011;76210;41.986;21.462;2024-02-21T10:29:37;11.73;;;6.65;;
85769;SDS011;76210;41.986;21.462;2024-02-21T10:32:09;15.18;;;7.47;;
85769;SDS011;76210;41.986;21.462;2024-02-21T10:34:36;10.95;;;7.03;;
85769;SDS011;76210;41.986;21.462;2024-02-21T10:37:10;15.38;;;7.85;;
85769;SDS011;76210;41.986;21.462;2024-02-21T10:39:37;14.30;;;7.43;;
85769;SDS011;76210;41.986;21.462;2024-02-21T10:42:03;10.05;;;7.13;;
85769;SDS011;76210;41.986;21.462;2024-02-21T10:44:32;16.77;;;9.57;;
85769;SDS011;76210;41.986;21.462;2024-02-21T10:46:57;16.73;;;7.40;;
85769;SDS011;76210;41.986;21.462;2024-02-21T10:49:24;12.40;;;7.03;;
85769;SDS011;76210;41.986;21.462;2024-02-21T10:52:00;15.40;;;6.63;;
85769;SDS011;76210;41.986;21.462;2024-02-21T10:56:59;15.05;;;7.65;;
85769;SDS011;76210;41.986;21.462;2024-02-21T10:59:25;16.05;;;7.72;;
85769;SDS011;76210;41.986;21.462;2024-02-21T11:01:52;13.57;;;6.93;;
85769;SDS011;76210;41.986;21.462;2024-02-21T11:04:17;19.63;;;7.25;;
85769;SDS011;76210;41.986;21.462;2024-02-21T11:06:43;13.05;;;8.02;;
85769;SDS011;76210;41.986;21.462;2024-02-21T11:09:09;13.27;;;8.00;;
85769;SDS011;76210;41.986;21.462;2024-02-21T11:11:35;13.63;;;7.70;;
85769;SDS011;76210;41.986;21.462;2024-02-21T11:14:04;13.68;;;7.63;;
85769;SDS011;76210;41.986;21.462;2024-02-21T11:19:03;15.43;;;7.63;;
85769;SDS011;76210;41.986;21.462;2024-02-21T11:21:35;11.60;;;8.02;;
85769;SDS011;76210;41.986;21.462;2024-02-21T11:24:01;13.93;;;8.02;;
85769;SDS011;76210;41.986;21.462;2024-02-21T11:26:27;15.00;;;7.70;;
85769;SDS011;76210;41.986;21.462;2024-02-21T11:29:00;13.13;;;7.80;;
85769;SDS011;76210;41.986;21.462;2024-02-21T11:31:25;14.60;;;8.65;;
85769;SDS011;76210;41.986;21.462;2024-02-21T11:33:52;11.80;;;8.18;;
85769;SDS011;76210;41.986;21.462;2024-02-21T11:36:26;14.90;;;8.85;;
85769;SDS011;76210;41.986;21.462;2024-02-21T11:38:52;13.82;;;8.35;;
85769;SDS011;76210;41.986;21.462;2024-02-21T11:41:18;13.07;;;8.35;;
85769;SDS011;76210;41.986;21.462;2024-02-21T11:43:44;14.55;;;8.20;;
85769;SDS011;76210;41.986;21.462;2024-02-21T11:46:09;17.27;;;8.77;;
85769;SDS011;76210;41.986;21.462;2024-02-21T11:48:34;14.23;;;8.05;;
85769;SDS011;76210;41.986;21.462;2024-02-21T11:51:00;13.90;;;8.57;;
85769;SDS011;76210;41.986;21.462;2024-02-21T11:53:26;25.95;;;15.23;;
85769;SDS011;76210;41.986;21.462;2024-02-21T11:55:55;17.13;;;9.80;;
85769;SDS011;76210;41.986;21.462;2024-02-21T11:58:21;16.05;;;8.23;;
85769;SDS011;76210;41.986;21.462;2024-02-21T12:00:47;30.67;;;19.10;;
85769;SDS011;76210;41.986;21.462;2024-02-21T12:03:12;14.60;;;8.50;;
85769;SDS011;76210;41.986;21.462;2024-02-21T12:05:38;12.73;;;8.63;;
85769;SDS011;76210;41.986;21.462;2024-02-21T12:08:03;18.27;;;10.40;;
85769;SDS011;76210;41.986;21.462;2024-02-21T12:10:29;11.38;;;8.23;;
85769;SDS011;76210;41.986;21.462;2024-02-21T12:13:04;14.50;;;8.48;;
85769;SDS011;76210;41.986;21.462;2024-02-21T12:15:30;13.85;;;9.57;;
85769;SDS011;76210;41.986;21.462;2024-02-21T12:17:56;13.85;;;8.00;;
85769;SDS011;76210;41.986;21.462;2024-02-21T12:20:21;12.63;;;7.93;;
85769;SDS011;76210;41.986;21.462;2024-02-21T12:22:48;11.60;;;8.13;;
85769;SDS011;76210;41.986;21.462;2024-02-21T12:25:16;23.27;;;13.05;;
85769;SDS011;76210;41.986;21.462;2024-02-21T12:27:43;15.73;;;8.23;;
85769;SDS011;76210;41.986;21.462;2024-02-21T12:30:08;13.70;;;9.30;;
85769;SDS011;76210;41.986;21.462;2024-02-21T12:32:35;16.70;;;9.68;;
85769;SDS011;76210;41.986;21.462;2024-02-21T12:35:00;24.90;;;13.60;;
85769;SDS011;76210;41.986;21.462;2024-02-21T12:37:25;31.83;;;16.92;;
85769;SDS011;76210;41.986;21.462;2024-02-21T12:39:51;20.87;;;13.10;;
85769;SDS011;76210;41.986;21.462;2024-02-21T12:42:16;24.85;;;11.68;;
85769;SDS011;76210;41.986;21.462;2024-02-21T12:44:42;20.75;;;10.35;;
85769;SDS011;76210;41.986;21.462;2024-02-21T12:47:07;16.02;;;9.77;;
85769;SDS011;76210;41.986;21.462;2024-02-21T12:49:33;16.30;;;9.07;;
85769;SDS011;76210;41.986;21.462;2024-02-21T12:51:58;14.27;;;8.35;;
85769;SDS011;76210;41.986;21.462;2024-02-21T12:54:23;21.60;;;11.18;;
85769;SDS011;76210;41.986;21.462;2024-02-21T12:56:49;34.25;;;19.08;;
85769;SDS011;76210;41.986;21.462;2024-02-21T12:59:15;14.00;;;7.88;;
85769;SDS011;76210;41.986;21.462;2024-02-21T13:01:40;17.95;;;10.63;;
85769;SDS011;76210;41.986;21.462;2024-02-21T13:04:05;21.42;;;12.85;;
85769;SDS011;76210;41.986;21.462;2024-02-21T13:06:31;14.23;;;8.38;;
85769;SDS011;76210;41.986;21.462;2024-02-21T13:08:56;27.67;;;15.43;;
85769;SDS011;76210;41.986;21.462;2024-02-21T13:11:21;17.07;;;9.20;;
85769;SDS011;76210;41.986;21.462;2024-02-21T13:13:47;24.30;;;13.32;;
85769;SDS011;76210;41.986;21.462;2024-02-21T13:16:12;13.57;;;8.50;;
85769;SDS011;76210;41.986;21.462;2024-02-21T13:18:37;28.35;;;16.55;;
85769;SDS011;76210;41.986;21.462;2024-02-21T13:21:06;17.67;;;10.27;;
85769;SDS011;76210;41.986;21.462;2024-02-21T13:23:31;41.00;;;23.52;;
85769;SDS011;76210;41.986;21.462;2024-02-21T13:25:56;36.45;;;20.73;;
85769;SDS011;76210;41.986;21.462;2024-02-21T13:28:21;29.27;;;17.03;;
85769;SDS011;76210;41.986;21.462;2024-02-21T13:30:47;15.50;;;9.97;;
85769;SDS011;76210;41.986;21.462;2024-02-21T13:33:13;11.77;;;7.65;;
85769;SDS011;76210;41.986;21.462;2024-02-21T13:35:38;14.43;;;9.98;;
85769;SDS011;76210;41.986;21.462;2024-02-21T13:38:03;15.85;;;9.40;;
85769;SDS011;76210;41.986;21.462;2024-02-21T13:40:29;29.15;;;16.02;;
85769;SDS011;76210;41.986;21.462;2024-02-21T13:42:54;44.55;;;25.95;;
85769;SDS011;76210;41.986;21.462;2024-02-21T13:45:20;10.98;;;6.70;;
85769;SDS011;76210;41.986;21.462;2024-02-21T13:47:45;17.25;;;8.57;;
85769;SDS011;76210;41.986;21.462;2024-02-21T13:50:10;17.07;;;7.67;;
85769;SDS011;76210;41.986;21.462;2024-02-21T13:52:39;13.23;;;8.95;;
85769;SDS011;76210;41.986;21.462;2024-02-21T13:55:05;18.08;;;10.65;;
85769;SDS011;76210;41.986;21.462;2024-02-21T13:57:33;14.73;;;9.55;;
85769;SDS011;76210;41.986;21.462;2024-02-21T13:59:58;18.08;;;9.30;;
85769;SDS011;76210;41.986;21.462;2024-02-21T14:02:24;13.10;;;8.05;;
85769;SDS011;76210;41.986;21.462;2024-02-21T14:04:49;16.90;;;10.55;;
85769;SDS011;76210;41.986;21.462;2024-02-21T14:07:15;22.42;;;13.05;;
85769;SDS011;76210;41.986;21.462;2024-02-21T14:09:42;13.05;;;8.05;;